18°C Temp
9°C Dewpoint
56% Humidity
Temperature
26 KM/H
16 MPH
14 KTS
60°
East North
East

Wind Speed
Mostly Scattered
Clouds
Pressure 1008.92 (hPa) - 29.79 (in)
Visibility 6.2 (mi) - 10.0 (km)

Current Conditions
LIRI
Location 25(km)
Metar :LIRI 161050Z 06014KT 9999 SCT030 18/09 Q1009
Thu 16th May 12:50 pm

Airport
  Metar Aviation API Data Provided by https://www.checkwx.com/ PHP scripts by weather34.com ©2019